Terminal Aerodrome Forecast
Issued by NWS

Current Version | Previous Version | Graphics & Text | Print | Product List | Glossary On
Versions: 1 2 3 4 5 6 7 8 9 10 11 12 13 14 15 16 17 18 19
717
FTUS41 KILN 280544
TAFLCK
TAF
KLCK 280544Z 2806/2906 17004KT P6SM SCT080 SCT200
     FM281300 16007KT P6SM -SHRA VCTS SCT050CB OVC080
      TEMPO 2813/2817 4SM TSRA BR OVC050CB
     FM282100 15008KT 4SM -TSRA BR OVC050CB
     FM282300 10007KT P6SM VCTS BKN040CB
     FM290000 10006KT P6SM VCSH OVC040
     FM290400 VRB03KT 4SM BR BKN020=

USA.gov is the U.S. government's official web portal to all federal, state and local government web resources and services.